sensor_id;sensor_type;location;lat;lon;timestamp;P1;durP1;ratioP1;P2;durP2;ratioP2
29214;SDS011;16252;49.816;7.964;2023-04-07T00:01:16;5.13;;;4.38;;
29214;SDS011;16252;49.816;7.964;2023-04-07T00:03:41;4.38;;;3.67;;
29214;SDS011;16252;49.816;7.964;2023-04-07T00:06:07;7.45;;;4.20;;
29214;SDS011;16252;49.816;7.964;2023-04-07T00:08:33;5.13;;;3.75;;
29214;SDS011;16252;49.816;7.964;2023-04-07T00:10:58;6.40;;;3.67;;
29214;SDS011;16252;49.816;7.964;2023-04-07T00:13:23;4.25;;;3.55;;
29214;SDS011;16252;49.816;7.964;2023-04-07T00:15:49;5.15;;;3.60;;
29214;SDS011;16252;49.816;7.964;2023-04-07T00:18:14;6.35;;;3.95;;
29214;SDS011;16252;49.816;7.964;2023-04-07T00:20:39;4.07;;;3.35;;
29214;SDS011;16252;49.816;7.964;2023-04-07T00:23:04;4.53;;;3.55;;
29214;SDS011;16252;49.816;7.964;2023-04-07T00:25:30;4.22;;;3.70;;
29214;SDS011;16252;49.816;7.964;2023-04-07T00:27:55;5.00;;;3.70;;
29214;SDS011;16252;49.816;7.964;2023-04-07T00:30:20;4.55;;;3.90;;
29214;SDS011;16252;49.816;7.964;2023-04-07T00:32:46;4.75;;;3.88;;
29214;SDS011;16252;49.816;7.964;2023-04-07T00:35:11;6.35;;;3.95;;
29214;SDS011;16252;49.816;7.964;2023-04-07T00:37:36;4.30;;;3.58;;
29214;SDS011;16252;49.816;7.964;2023-04-07T00:40:02;4.70;;;4.20;;
29214;SDS011;16252;49.816;7.964;2023-04-07T00:42:28;4.60;;;3.80;;
29214;SDS011;16252;49.816;7.964;2023-04-07T00:44:53;5.47;;;4.47;;
29214;SDS011;16252;49.816;7.964;2023-04-07T00:47:18;5.68;;;4.28;;
29214;SDS011;16252;49.816;7.964;2023-04-07T00:49:44;4.82;;;3.95;;
29214;SDS011;16252;49.816;7.964;2023-04-07T00:52:09;4.72;;;4.07;;
29214;SDS011;16252;49.816;7.964;2023-04-07T00:54:36;4.63;;;4.13;;
29214;SDS011;16252;49.816;7.964;2023-04-07T00:57:02;5.53;;;4.25;;
29214;SDS011;16252;49.816;7.964;2023-04-07T00:59:28;5.25;;;4.30;;
29214;SDS011;16252;49.816;7.964;2023-04-07T01:02:07;5.82;;;3.85;;
29214;SDS011;16252;49.816;7.964;2023-04-07T01:07:28;5.80;;;3.88;;
29214;SDS011;16252;49.816;7.964;2023-04-07T01:10:09;4.50;;;3.70;;
29214;SDS011;16252;49.816;7.964;2023-04-07T01:12:53;5.90;;;4.18;;
29214;SDS011;16252;49.816;7.964;2023-04-07T01:15:26;6.20;;;3.97;;
29214;SDS011;16252;49.816;7.964;2023-04-07T01:17:55;5.07;;;3.90;;
29214;SDS011;16252;49.816;7.964;2023-04-07T01:20:30;6.57;;;4.82;;
29214;SDS011;16252;49.816;7.964;2023-04-07T01:22:57;4.93;;;3.88;;
29214;SDS011;16252;49.816;7.964;2023-04-07T01:25:34;5.55;;;3.92;;
29214;SDS011;16252;49.816;7.964;2023-04-07T01:31:11;5.72;;;4.32;;
29214;SDS011;16252;49.816;7.964;2023-04-07T01:33:39;6.45;;;4.63;;
29214;SDS011;16252;49.816;7.964;2023-04-07T01:36:06;7.85;;;4.63;;
29214;SDS011;16252;49.816;7.964;2023-04-07T01:38:33;4.97;;;4.15;;
29214;SDS011;16252;49.816;7.964;2023-04-07T01:40:58;5.00;;;4.13;;
29214;SDS011;16252;49.816;7.964;2023-04-07T01:43:25;4.78;;;3.70;;
29214;SDS011;16252;49.816;7.964;2023-04-07T01:45:52;5.60;;;4.15;;
29214;SDS011;16252;49.816;7.964;2023-04-07T01:48:19;7.18;;;4.68;;
29214;SDS011;16252;49.816;7.964;2023-04-07T01:50:44;5.20;;;4.25;;
29214;SDS011;16252;49.816;7.964;2023-04-07T01:53:10;5.47;;;4.45;;
29214;SDS011;16252;49.816;7.964;2023-04-07T01:55:36;6.25;;;4.65;;
29214;SDS011;16252;49.816;7.964;2023-04-07T01:58:05;6.15;;;4.20;;
29214;SDS011;16252;49.816;7.964;2023-04-07T02:00:31;6.00;;;4.60;;
29214;SDS011;16252;49.816;7.964;2023-04-07T02:02:58;6.95;;;4.75;;
29214;SDS011;16252;49.816;7.964;2023-04-07T02:05:35;6.28;;;4.45;;
29214;SDS011;16252;49.816;7.964;2023-04-07T02:08:04;6.55;;;4.90;;
29214;SDS011;16252;49.816;7.964;2023-04-07T02:10:32;5.03;;;4.07;;
29214;SDS011;16252;49.816;7.964;2023-04-07T02:13:01;5.72;;;4.43;;
29214;SDS011;16252;49.816;7.964;2023-04-07T02:15:29;5.65;;;4.65;;
29214;SDS011;16252;49.816;7.964;2023-04-07T02:17:58;7.45;;;4.78;;
29214;SDS011;16252;49.816;7.964;2023-04-07T02:20:25;4.88;;;3.65;;
29214;SDS011;16252;49.816;7.964;2023-04-07T02:22:52;5.63;;;4.25;;
29214;SDS011;16252;49.816;7.964;2023-04-07T02:25:24;4.97;;;4.07;;
29214;SDS011;16252;49.816;7.964;2023-04-07T02:27:53;5.63;;;4.10;;
29214;SDS011;16252;49.816;7.964;2023-04-07T02:30:20;5.50;;;3.97;;
29214;SDS011;16252;49.816;7.964;2023-04-07T02:32:46;7.50;;;4.40;;
29214;SDS011;16252;49.816;7.964;2023-04-07T02:35:11;7.22;;;4.68;;
29214;SDS011;16252;49.816;7.964;2023-04-07T02:37:37;5.97;;;4.45;;
29214;SDS011;16252;49.816;7.964;2023-04-07T02:40:03;5.80;;;4.60;;
29214;SDS011;16252;49.816;7.964;2023-04-07T02:42:29;5.60;;;4.43;;
29214;SDS011;16252;49.816;7.964;2023-04-07T02:44:55;6.32;;;4.38;;
29214;SDS011;16252;49.816;7.964;2023-04-07T02:47:20;5.45;;;4.22;;
29214;SDS011;16252;49.816;7.964;2023-04-07T02:49:45;5.07;;;4.28;;
29214;SDS011;16252;49.816;7.964;2023-04-07T02:52:11;5.43;;;3.88;;
29214;SDS011;16252;49.816;7.964;2023-04-07T02:54:36;4.78;;;3.67;;
29214;SDS011;16252;49.816;7.964;2023-04-07T02:57:01;5.78;;;4.53;;
29214;SDS011;16252;49.816;7.964;2023-04-07T02:59:27;6.43;;;4.25;;
29214;SDS011;16252;49.816;7.964;2023-04-07T03:01:52;5.85;;;4.60;;
29214;SDS011;16252;49.816;7.964;2023-04-07T03:04:17;4.95;;;4.25;;
29214;SDS011;16252;49.816;7.964;2023-04-07T03:06:43;6.53;;;4.28;;
29214;SDS011;16252;49.816;7.964;2023-04-07T03:09:08;8.77;;;4.72;;
29214;SDS011;16252;49.816;7.964;2023-04-07T03:11:33;5.57;;;4.00;;
29214;SDS011;16252;49.816;7.964;2023-04-07T03:13:58;6.15;;;4.32;;
29214;SDS011;16252;49.816;7.964;2023-04-07T03:16:24;3.92;;;3.53;;
29214;SDS011;16252;49.816;7.964;2023-04-07T03:18:49;5.28;;;4.57;;
29214;SDS011;16252;49.816;7.964;2023-04-07T03:21:14;4.20;;;3.70;;
29214;SDS011;16252;49.816;7.964;2023-04-07T03:23:40;4.45;;;4.03;;
29214;SDS011;16252;49.816;7.964;2023-04-07T03:26:05;5.60;;;3.63;;
29214;SDS011;16252;49.816;7.964;2023-04-07T03:28:32;5.30;;;3.75;;
29214;SDS011;16252;49.816;7.964;2023-04-07T03:30:57;6.25;;;4.30;;
29214;SDS011;16252;49.816;7.964;2023-04-07T03:33:22;4.93;;;3.88;;
29214;SDS011;16252;49.816;7.964;2023-04-07T03:35:47;5.43;;;4.32;;
29214;SDS011;16252;49.816;7.964;2023-04-07T03:38:13;6.72;;;4.00;;
29214;SDS011;16252;49.816;7.964;2023-04-07T03:40:38;6.80;;;4.15;;
29214;SDS011;16252;49.816;7.964;2023-04-07T03:43:03;6.20;;;4.32;;
29214;SDS011;16252;49.816;7.964;2023-04-07T03:45:28;5.63;;;4.57;;
29214;SDS011;16252;49.816;7.964;2023-04-07T03:47:54;7.43;;;4.60;;
29214;SDS011;16252;49.816;7.964;2023-04-07T03:50:20;6.68;;;4.85;;
29214;SDS011;16252;49.816;7.964;2023-04-07T03:52:45;7.85;;;5.10;;
29214;SDS011;16252;49.816;7.964;2023-04-07T03:55:11;7.40;;;5.47;;
29214;SDS011;16252;49.816;7.964;2023-04-07T03:57:36;6.50;;;5.50;;
29214;SDS011;16252;49.816;7.964;2023-04-07T04:00:01;7.13;;;5.65;;
29214;SDS011;16252;49.816;7.964;2023-04-07T04:02:27;8.63;;;5.95;;
29214;SDS011;16252;49.816;7.964;2023-04-07T04:04:53;7.28;;;5.35;;
29214;SDS011;16252;49.816;7.964;2023-04-07T04:07:18;7.75;;;5.47;;
29214;SDS011;16252;49.816;7.964;2023-04-07T04:09:43;8.32;;;6.00;;
29214;SDS011;16252;49.816;7.964;2023-04-07T04:12:09;6.07;;;5.45;;
29214;SDS011;16252;49.816;7.964;2023-04-07T04:14:35;8.77;;;6.50;;
29214;SDS011;16252;49.816;7.964;2023-04-07T04:17:00;9.20;;;6.40;;
29214;SDS011;16252;49.816;7.964;2023-04-07T04:19:25;9.90;;;6.72;;
29214;SDS011;16252;49.816;7.964;2023-04-07T04:21:51;9.00;;;6.43;;
29214;SDS011;16252;49.816;7.964;2023-04-07T04:24:16;7.57;;;6.13;;
29214;SDS011;16252;49.816;7.964;2023-04-07T04:26:41;8.95;;;6.22;;
29214;SDS011;16252;49.816;7.964;2023-04-07T04:29:06;10.27;;;6.95;;
29214;SDS011;16252;49.816;7.964;2023-04-07T04:31:32;10.63;;;6.95;;
29214;SDS011;16252;49.816;7.964;2023-04-07T04:33:57;9.93;;;6.55;;
29214;SDS011;16252;49.816;7.964;2023-04-07T04:36:22;9.32;;;6.60;;
29214;SDS011;16252;49.816;7.964;2023-04-07T04:38:48;9.63;;;7.28;;
29214;SDS011;16252;49.816;7.964;2023-04-07T04:41:13;9.85;;;6.78;;
29214;SDS011;16252;49.816;7.964;2023-04-07T04:43:38;8.75;;;6.82;;
29214;SDS011;16252;49.816;7.964;2023-04-07T04:46:04;11.27;;;7.82;;
29214;SDS011;16252;49.816;7.964;2023-04-07T04:48:29;9.23;;;6.32;;
29214;SDS011;16252;49.816;7.964;2023-04-07T04:50:54;8.60;;;6.30;;
29214;SDS011;16252;49.816;7.964;2023-04-07T04:53:20;11.70;;;7.30;;
29214;SDS011;16252;49.816;7.964;2023-04-07T04:55:45;9.40;;;6.93;;
29214;SDS011;16252;49.816;7.964;2023-04-07T04:58:11;9.35;;;7.13;;
29214;SDS011;16252;49.816;7.964;2023-04-07T05:00:36;13.15;;;8.07;;
29214;SDS011;16252;49.816;7.964;2023-04-07T05:03:01;9.50;;;7.43;;
29214;SDS011;16252;49.816;7.964;2023-04-07T05:05:27;10.05;;;7.38;;
29214;SDS011;16252;49.816;7.964;2023-04-07T05:07:52;10.80;;;6.97;;
29214;SDS011;16252;49.816;7.964;2023-04-07T05:10:18;9.85;;;6.68;;
29214;SDS011;16252;49.816;7.964;2023-04-07T05:12:43;9.70;;;7.45;;
29214;SDS011;16252;49.816;7.964;2023-04-07T05:15:08;8.20;;;6.45;;
29214;SDS011;16252;49.816;7.964;2023-04-07T05:17:34;9.98;;;6.63;;
29214;SDS011;16252;49.816;7.964;2023-04-07T05:20:00;9.73;;;7.13;;
29214;SDS011;16252;49.816;7.964;2023-04-07T05:22:25;8.43;;;7.13;;
29214;SDS011;16252;49.816;7.964;2023-04-07T05:24:50;10.88;;;7.88;;
29214;SDS011;16252;49.816;7.964;2023-04-07T05:27:16;10.18;;;6.57;;
29214;SDS011;16252;49.816;7.964;2023-04-07T05:29:41;9.60;;;7.30;;
29214;SDS011;16252;49.816;7.964;2023-04-07T05:32:06;9.07;;;6.82;;
29214;SDS011;16252;49.816;7.964;2023-04-07T05:34:31;8.07;;;6.45;;
29214;SDS011;16252;49.816;7.964;2023-04-07T05:36:57;10.35;;;6.80;;
29214;SDS011;16252;49.816;7.964;2023-04-07T05:39:22;9.02;;;6.85;;
29214;SDS011;16252;49.816;7.964;2023-04-07T05:41:47;10.35;;;6.72;;
29214;SDS011;16252;49.816;7.964;2023-04-07T05:44:13;9.98;;;7.15;;
29214;SDS011;16252;49.816;7.964;2023-04-07T05:46:38;14.00;;;8.82;;
29214;SDS011;16252;49.816;7.964;2023-04-07T05:49:03;14.50;;;9.88;;
29214;SDS011;16252;49.816;7.964;2023-04-07T05:51:28;12.02;;;8.02;;
29214;SDS011;16252;49.816;7.964;2023-04-07T05:53:55;9.07;;;7.07;;
29214;SDS011;16252;49.816;7.964;2023-04-07T05:56:20;9.57;;;7.22;;
29214;SDS011;16252;49.816;7.964;2023-04-07T05:58:45;10.85;;;7.72;;
29214;SDS011;16252;49.816;7.964;2023-04-07T06:01:11;9.05;;;6.55;;
29214;SDS011;16252;49.816;7.964;2023-04-07T06:03:36;10.02;;;7.32;;
29214;SDS011;16252;49.816;7.964;2023-04-07T06:06:01;9.70;;;6.63;;
29214;SDS011;16252;49.816;7.964;2023-04-07T06:08:27;10.43;;;7.57;;
29214;SDS011;16252;49.816;7.964;2023-04-07T06:10:52;8.95;;;6.82;;
29214;SDS011;16252;49.816;7.964;2023-04-07T06:13:17;10.07;;;6.85;;
29214;SDS011;16252;49.816;7.964;2023-04-07T06:15:42;10.55;;;6.53;;
29214;SDS011;16252;49.816;7.964;2023-04-07T06:18:08;9.73;;;6.93;;
29214;SDS011;16252;49.816;7.964;2023-04-07T06:20:33;8.68;;;7.00;;
29214;SDS011;16252;49.816;7.964;2023-04-07T06:22:59;7.75;;;6.28;;
29214;SDS011;16252;49.816;7.964;2023-04-07T06:25:24;9.63;;;6.75;;
29214;SDS011;16252;49.816;7.964;2023-04-07T06:27:50;8.70;;;5.90;;
29214;SDS011;16252;49.816;7.964;2023-04-07T06:30:15;10.30;;;6.53;;
29214;SDS011;16252;49.816;7.964;2023-04-07T06:32:41;9.40;;;6.43;;
29214;SDS011;16252;49.816;7.964;2023-04-07T06:35:06;8.38;;;6.65;;
29214;SDS011;16252;49.816;7.964;2023-04-07T06:37:32;11.20;;;7.68;;
29214;SDS011;16252;49.816;7.964;2023-04-07T06:39:57;11.80;;;7.47;;
29214;SDS011;16252;49.816;7.964;2023-04-07T06:42:22;10.93;;;8.13;;
29214;SDS011;16252;49.816;7.964;2023-04-07T06:44:47;11.32;;;7.60;;
29214;SDS011;16252;49.816;7.964;2023-04-07T06:47:13;9.60;;;6.78;;
29214;SDS011;16252;49.816;7.964;2023-04-07T06:49:38;8.18;;;6.55;;
29214;SDS011;16252;49.816;7.964;2023-04-07T06:52:04;7.82;;;6.07;;
29214;SDS011;16252;49.816;7.964;2023-04-07T06:54:29;8.25;;;6.40;;
29214;SDS011;16252;49.816;7.964;2023-04-07T06:56:54;8.48;;;6.80;;
29214;SDS011;16252;49.816;7.964;2023-04-07T06:59:21;9.40;;;6.63;;
29214;SDS011;16252;49.816;7.964;2023-04-07T07:01:46;9.00;;;6.60;;
29214;SDS011;16252;49.816;7.964;2023-04-07T07:04:13;9.07;;;6.82;;
29214;SDS011;16252;49.816;7.964;2023-04-07T07:06:38;7.43;;;6.18;;
29214;SDS011;16252;49.816;7.964;2023-04-07T07:09:03;9.10;;;6.63;;
29214;SDS011;16252;49.816;7.964;2023-04-07T07:11:28;8.38;;;6.85;;
29214;SDS011;16252;49.816;7.964;2023-04-07T07:13:54;10.60;;;6.85;;
29214;SDS011;16252;49.816;7.964;2023-04-07T07:16:19;10.65;;;7.47;;
29214;SDS011;16252;49.816;7.964;2023-04-07T07:18:47;10.40;;;7.25;;
29214;SDS011;16252;49.816;7.964;2023-04-07T07:21:13;9.05;;;7.28;;
29214;SDS011;16252;49.816;7.964;2023-04-07T07:23:38;11.00;;;7.53;;
29214;SDS011;16252;49.816;7.964;2023-04-07T07:26:03;11.55;;;7.60;;
29214;SDS011;16252;49.816;7.964;2023-04-07T07:28:29;10.30;;;7.68;;
29214;SDS011;16252;49.816;7.964;2023-04-07T07:30:54;11.77;;;8.20;;
29214;SDS011;16252;49.816;7.964;2023-04-07T07:33:20;11.43;;;6.78;;
29214;SDS011;16252;49.816;7.964;2023-04-07T07:35:49;12.10;;;6.93;;
29214;SDS011;16252;49.816;7.964;2023-04-07T07:38:15;11.80;;;7.60;;
29214;SDS011;16252;49.816;7.964;2023-04-07T07:40:40;9.05;;;6.88;;
29214;SDS011;16252;49.816;7.964;2023-04-07T07:43:06;9.48;;;7.30;;
29214;SDS011;16252;49.816;7.964;2023-04-07T07:45:31;9.60;;;7.78;;
29214;SDS011;16252;49.816;7.964;2023-04-07T07:47:57;11.43;;;7.53;;
29214;SDS011;16252;49.816;7.964;2023-04-07T07:50:22;10.88;;;7.03;;
29214;SDS011;16252;49.816;7.964;2023-04-07T07:52:47;9.73;;;6.97;;
29214;SDS011;16252;49.816;7.964;2023-04-07T07:55:13;9.35;;;6.72;;
29214;SDS011;16252;49.816;7.964;2023-04-07T07:57:38;7.78;;;6.75;;
29214;SDS011;16252;49.816;7.964;2023-04-07T08:00:03;8.90;;;6.78;;
29214;SDS011;16252;49.816;7.964;2023-04-07T08:02:29;9.20;;;6.43;;
29214;SDS011;16252;49.816;7.964;2023-04-07T08:04:56;6.95;;;5.75;;
29214;SDS011;16252;49.816;7.964;2023-04-07T08:07:22;6.53;;;4.88;;
29214;SDS011;16252;49.816;7.964;2023-04-07T08:09:47;5.47;;;4.18;;
29214;SDS011;16252;49.816;7.964;2023-04-07T08:12:13;7.10;;;4.30;;
29214;SDS011;16252;49.816;7.964;2023-04-07T08:14:39;6.00;;;3.72;;
29214;SDS011;16252;49.816;7.964;2023-04-07T08:17:05;4.47;;;3.92;;
29214;SDS011;16252;49.816;7.964;2023-04-07T08:19:30;5.32;;;4.03;;
29214;SDS011;16252;49.816;7.964;2023-04-07T08:21:55;9.00;;;4.88;;
29214;SDS011;16252;49.816;7.964;2023-04-07T08:24:21;6.90;;;4.75;;
29214;SDS011;16252;49.816;7.964;2023-04-07T08:26:46;5.43;;;3.80;;
29214;SDS011;16252;49.816;7.964;2023-04-07T08:29:11;5.13;;;3.85;;
29214;SDS011;16252;49.816;7.964;2023-04-07T08:31:37;4.50;;;3.55;;
29214;SDS011;16252;49.816;7.964;2023-04-07T08:34:02;4.18;;;3.42;;
29214;SDS011;16252;49.816;7.964;2023-04-07T08:36:27;5.57;;;3.78;;
29214;SDS011;16252;49.816;7.964;2023-04-07T08:38:54;4.68;;;3.63;;
29214;SDS011;16252;49.816;7.964;2023-04-07T08:41:26;4.55;;;3.15;;
29214;SDS011;16252;49.816;7.964;2023-04-07T08:43:55;3.17;;;2.88;;
29214;SDS011;16252;49.816;7.964;2023-04-07T08:46:21;3.80;;;3.42;;
29214;SDS011;16252;49.816;7.964;2023-04-07T08:48:50;3.25;;;2.65;;
29214;SDS011;16252;49.816;7.964;2023-04-07T08:51:17;3.28;;;2.72;;
29214;SDS011;16252;49.816;7.964;2023-04-07T08:53:59;3.45;;;2.55;;
29214;SDS011;16252;49.816;7.964;2023-04-07T08:56:31;3.42;;;2.45;;
29214;SDS011;16252;49.816;7.964;2023-04-07T08:58:58;2.70;;;2.30;;
29214;SDS011;16252;49.816;7.964;2023-04-07T09:01:25;3.67;;;2.83;;
29214;SDS011;16252;49.816;7.964;2023-04-07T09:03:51;3.70;;;2.88;;
29214;SDS011;16252;49.816;7.964;2023-04-07T09:06:17;3.17;;;2.42;;
29214;SDS011;16252;49.816;7.964;2023-04-07T09:08:42;3.10;;;2.80;;
29214;SDS011;16252;49.816;7.964;2023-04-07T09:11:07;5.15;;;2.80;;
29214;SDS011;16252;49.816;7.964;2023-04-07T09:13:33;3.33;;;2.70;;
29214;SDS011;16252;49.816;7.964;2023-04-07T09:15:59;2.78;;;2.40;;
29214;SDS011;16252;49.816;7.964;2023-04-07T09:18:26;2.83;;;1.98;;
29214;SDS011;16252;49.816;7.964;2023-04-07T09:20:55;2.13;;;1.92;;
29214;SDS011;16252;49.816;7.964;2023-04-07T09:26:17;2.30;;;1.90;;
29214;SDS011;16252;49.816;7.964;2023-04-07T09:28:43;3.33;;;2.40;;
29214;SDS011;16252;49.816;7.964;2023-04-07T09:31:10;2.15;;;1.98;;
29214;SDS011;16252;49.816;7.964;2023-04-07T09:33:36;2.20;;;2.00;;
29214;SDS011;16252;49.816;7.964;2023-04-07T09:36:02;3.42;;;2.17;;
29214;SDS011;16252;49.816;7.964;2023-04-07T09:38:32;2.55;;;2.08;;
29214;SDS011;16252;49.816;7.964;2023-04-07T09:41:06;2.67;;;2.05;;
29214;SDS011;16252;49.816;7.964;2023-04-07T09:43:35;2.72;;;1.95;;
29214;SDS011;16252;49.816;7.964;2023-04-07T09:46:08;2.78;;;1.90;;
29214;SDS011;16252;49.816;7.964;2023-04-07T09:48:35;2.70;;;1.63;;
29214;SDS011;16252;49.816;7.964;2023-04-07T09:51:04;2.03;;;1.48;;
29214;SDS011;16252;49.816;7.964;2023-04-07T09:53:41;1.25;;;1.15;;
29214;SDS011;16252;49.816;7.964;2023-04-07T09:56:08;1.45;;;1.20;;
29214;SDS011;16252;49.816;7.964;2023-04-07T09:58:36;1.05;;;0.95;;
29214;SDS011;16252;49.816;7.964;2023-04-07T10:01:03;1.38;;;0.90;;
29214;SDS011;16252;49.816;7.964;2023-04-07T10:03:29;1.15;;;1.05;;
29214;SDS011;16252;49.816;7.964;2023-04-07T10:05:58;1.23;;;1.05;;
29214;SDS011;16252;49.816;7.964;2023-04-07T10:08:24;1.10;;;0.98;;
29214;SDS011;16252;49.816;7.964;2023-04-07T10:10:50;1.27;;;1.00;;
29214;SDS011;16252;49.816;7.964;2023-04-07T10:13:16;1.10;;;1.00;;
29214;SDS011;16252;49.816;7.964;2023-04-07T10:15:42;1.25;;;1.10;;
29214;SDS011;16252;49.816;7.964;2023-04-07T10:18:07;1.20;;;1.10;;
29214;SDS011;16252;49.816;7.964;2023-04-07T10:20:33;2.50;;;1.65;;
29214;SDS011;16252;49.816;7.964;2023-04-07T10:23:02;2.33;;;2.08;;
29214;SDS011;16252;49.816;7.964;2023-04-07T10:25:32;2.97;;;2.60;;
29214;SDS011;16252;49.816;7.964;2023-04-07T10:28:02;3.30;;;2.22;;
29214;SDS011;16252;49.816;7.964;2023-04-07T10:30:30;2.38;;;2.17;;
29214;SDS011;16252;49.816;7.964;2023-04-07T10:32:58;2.72;;;1.88;;
29214;SDS011;16252;49.816;7.964;2023-04-07T10:35:23;3.00;;;2.30;;
29214;SDS011;16252;49.816;7.964;2023-04-07T10:40:34;2.85;;;2.17;;
29214;SDS011;16252;49.816;7.964;2023-04-07T10:43:00;2.85;;;2.25;;
29214;SDS011;16252;49.816;7.964;2023-04-07T10:48:10;2.70;;;2.47;;
29214;SDS011;16252;49.816;7.964;2023-04-07T10:50:37;2.30;;;2.10;;
29214;SDS011;16252;49.816;7.964;2023-04-07T10:53:06;2.88;;;2.28;;
29214;SDS011;16252;49.816;7.964;2023-04-07T11:01:15;3.08;;;2.10;;
29214;SDS011;16252;49.816;7.964;2023-04-07T11:03:51;2.33;;;1.83;;
29214;SDS011;16252;49.816;7.964;2023-04-07T11:06:18;1.85;;;1.67;;
29214;SDS011;16252;49.816;7.964;2023-04-07T11:08:44;2.08;;;1.73;;
29214;SDS011;16252;49.816;7.964;2023-04-07T11:11:12;1.98;;;1.85;;
29214;SDS011;16252;49.816;7.964;2023-04-07T11:13:39;2.38;;;2.08;;
29214;SDS011;16252;49.816;7.964;2023-04-07T11:16:05;2.53;;;2.33;;
29214;SDS011;16252;49.816;7.964;2023-04-07T11:18:31;2.58;;;2.38;;
29214;SDS011;16252;49.816;7.964;2023-04-07T11:20:57;2.50;;;2.30;;
29214;SDS011;16252;49.816;7.964;2023-04-07T11:23:23;2.50;;;2.30;;
29214;SDS011;16252;49.816;7.964;2023-04-07T11:25:53;2.55;;;2.35;;
29214;SDS011;16252;49.816;7.964;2023-04-07T11:28:26;3.53;;;2.65;;
29214;SDS011;16252;49.816;7.964;2023-04-07T11:30:52;2.58;;;2.30;;
29214;SDS011;16252;49.816;7.964;2023-04-07T11:33:21;3.42;;;2.50;;
29214;SDS011;16252;49.816;7.964;2023-04-07T11:38:22;3.03;;;2.28;;
29214;SDS011;16252;49.816;7.964;2023-04-07T11:40:49;3.60;;;2.08;;
29214;SDS011;16252;49.816;7.964;2023-04-07T11:43:18;2.60;;;2.40;;
29214;SDS011;16252;49.816;7.964;2023-04-07T11:46:06;4.45;;;2.53;;
29214;SDS011;16252;49.816;7.964;2023-04-07T11:48:37;3.47;;;2.97;;
29214;SDS011;16252;49.816;7.964;2023-04-07T11:51:03;3.75;;;2.88;;
29214;SDS011;16252;49.816;7.964;2023-04-07T11:53:33;3.85;;;3.13;;
29214;SDS011;16252;49.816;7.964;2023-04-07T11:56:06;4.07;;;3.05;;
29214;SDS011;16252;49.816;7.964;2023-04-07T11:58:34;5.32;;;3.35;;
29214;SDS011;16252;49.816;7.964;2023-04-07T12:01:01;4.90;;;3.75;;
29214;SDS011;16252;49.816;7.964;2023-04-07T12:03:35;4.85;;;3.20;;
29214;SDS011;16252;49.816;7.964;2023-04-07T12:06:01;4.95;;;3.63;;
29214;SDS011;16252;49.816;7.964;2023-04-07T12:08:37;4.85;;;3.45;;
29214;SDS011;16252;49.816;7.964;2023-04-07T12:11:06;3.85;;;3.03;;
29214;SDS011;16252;49.816;7.964;2023-04-07T12:13:33;5.28;;;3.58;;
29214;SDS011;16252;49.816;7.964;2023-04-07T12:15:59;4.22;;;2.97;;
29214;SDS011;16252;49.816;7.964;2023-04-07T12:18:25;4.05;;;2.80;;
29214;SDS011;16252;49.816;7.964;2023-04-07T12:20:52;4.93;;;2.78;;
29214;SDS011;16252;49.816;7.964;2023-04-07T12:23:17;3.97;;;2.65;;
29214;SDS011;16252;49.816;7.964;2023-04-07T12:25:42;4.25;;;3.25;;
29214;SDS011;16252;49.816;7.964;2023-04-07T12:28:08;3.55;;;2.55;;
29214;SDS011;16252;49.816;7.964;2023-04-07T12:30:33;4.25;;;3.10;;
29214;SDS011;16252;49.816;7.964;2023-04-07T12:32:58;4.15;;;2.97;;
29214;SDS011;16252;49.816;7.964;2023-04-07T12:35:23;3.25;;;2.47;;
29214;SDS011;16252;49.816;7.964;2023-04-07T12:37:49;3.85;;;2.85;;
29214;SDS011;16252;49.816;7.964;2023-04-07T12:40:15;3.35;;;2.95;;
29214;SDS011;16252;49.816;7.964;2023-04-07T12:42:41;4.15;;;2.80;;
29214;SDS011;16252;49.816;7.964;2023-04-07T12:45:07;3.95;;;2.90;;
29214;SDS011;16252;49.816;7.964;2023-04-07T12:47:32;4.28;;;2.72;;
29214;SDS011;16252;49.816;7.964;2023-04-07T12:49:58;4.35;;;3.20;;
29214;SDS011;16252;49.816;7.964;2023-04-07T12:52:23;3.65;;;2.92;;
29214;SDS011;16252;49.816;7.964;2023-04-07T12:54:48;4.00;;;2.92;;
29214;SDS011;16252;49.816;7.964;2023-04-07T12:57:14;4.50;;;3.10;;
29214;SDS011;16252;49.816;7.964;2023-04-07T12:59:40;3.97;;;2.80;;
29214;SDS011;16252;49.816;7.964;2023-04-07T13:02:05;4.00;;;2.72;;
29214;SDS011;16252;49.816;7.964;2023-04-07T13:04:30;3.53;;;2.63;;
29214;SDS011;16252;49.816;7.964;2023-04-07T13:06:56;4.72;;;3.58;;
29214;SDS011;16252;49.816;7.964;2023-04-07T13:09:21;4.15;;;3.17;;
29214;SDS011;16252;49.816;7.964;2023-04-07T13:11:46;3.88;;;3.05;;
29214;SDS011;16252;49.816;7.964;2023-04-07T13:14:12;5.57;;;3.08;;
29214;SDS011;16252;49.816;7.964;2023-04-07T13:16:37;4.72;;;3.38;;
29214;SDS011;16252;49.816;7.964;2023-04-07T13:19:02;3.65;;;2.83;;
29214;SDS011;16252;49.816;7.964;2023-04-07T13:21:28;3.30;;;2.80;;
29214;SDS011;16252;49.816;7.964;2023-04-07T13:23:53;4.15;;;3.00;;
29214;SDS011;16252;49.816;7.964;2023-04-07T13:26:18;3.38;;;2.80;;
29214;SDS011;16252;49.816;7.964;2023-04-07T13:28:44;5.43;;;3.72;;
29214;SDS011;16252;49.816;7.964;2023-04-07T13:31:10;6.55;;;3.85;;
29214;SDS011;16252;49.816;7.964;2023-04-07T13:33:39;9.32;;;6.00;;
29214;SDS011;16252;49.816;7.964;2023-04-07T13:36:05;8.35;;;5.43;;
29214;SDS011;16252;49.816;7.964;2023-04-07T13:38:30;10.20;;;5.93;;
29214;SDS011;16252;49.816;7.964;2023-04-07T13:40:55;7.63;;;5.38;;
29214;SDS011;16252;49.816;7.964;2023-04-07T13:43:20;6.45;;;4.55;;
29214;SDS011;16252;49.816;7.964;2023-04-07T13:45:46;6.35;;;4.10;;
29214;SDS011;16252;49.816;7.964;2023-04-07T13:48:12;5.63;;;4.00;;
29214;SDS011;16252;49.816;7.964;2023-04-07T13:50:37;6.43;;;4.10;;
29214;SDS011;16252;49.816;7.964;2023-04-07T13:53:03;8.13;;;4.35;;
29214;SDS011;16252;49.816;7.964;2023-04-07T13:55:28;4.50;;;3.25;;
29214;SDS011;16252;49.816;7.964;2023-04-07T13:57:53;3.95;;;2.83;;
29214;SDS011;16252;49.816;7.964;2023-04-07T14:00:18;3.67;;;2.67;;
29214;SDS011;16252;49.816;7.964;2023-04-07T14:02:44;3.58;;;2.75;;
29214;SDS011;16252;49.816;7.964;2023-04-07T14:05:11;3.78;;;3.00;;
29214;SDS011;16252;49.816;7.964;2023-04-07T14:07:36;4.35;;;3.22;;
29214;SDS011;16252;49.816;7.964;2023-04-07T14:10:02;3.88;;;2.50;;
29214;SDS011;16252;49.816;7.964;2023-04-07T14:12:27;4.60;;;3.05;;
29214;SDS011;16252;49.816;7.964;2023-04-07T14:14:52;5.63;;;3.38;;
29214;SDS011;16252;49.816;7.964;2023-04-07T14:17:18;5.32;;;3.20;;
29214;SDS011;16252;49.816;7.964;2023-04-07T14:19:44;4.60;;;3.28;;
29214;SDS011;16252;49.816;7.964;2023-04-07T14:22:12;5.03;;;3.10;;
29214;SDS011;16252;49.816;7.964;2023-04-07T14:24:38;4.03;;;2.72;;
29214;SDS011;16252;49.816;7.964;2023-04-07T14:27:03;4.35;;;3.30;;
29214;SDS011;16252;49.816;7.964;2023-04-07T14:29:29;6.30;;;3.20;;
29214;SDS011;16252;49.816;7.964;2023-04-07T14:31:54;4.40;;;3.00;;
29214;SDS011;16252;49.816;7.964;2023-04-07T14:34:20;4.13;;;3.00;;
29214;SDS011;16252;49.816;7.964;2023-04-07T14:36:55;5.32;;;3.35;;
29214;SDS011;16252;49.816;7.964;2023-04-07T14:39:22;4.65;;;2.97;;
29214;SDS011;16252;49.816;7.964;2023-04-07T14:41:48;4.72;;;2.95;;
29214;SDS011;16252;49.816;7.964;2023-04-07T14:44:13;4.93;;;3.17;;
29214;SDS011;16252;49.816;7.964;2023-04-07T14:46:39;5.78;;;3.25;;
29214;SDS011;16252;49.816;7.964;2023-04-07T14:49:06;5.78;;;3.33;;
29214;SDS011;16252;49.816;7.964;2023-04-07T14:51:31;5.30;;;3.63;;
29214;SDS011;16252;49.816;7.964;2023-04-07T14:53:57;4.70;;;3.28;;
29214;SDS011;16252;49.816;7.964;2023-04-07T14:56:23;5.20;;;3.15;;
29214;SDS011;16252;49.816;7.964;2023-04-07T14:58:48;3.72;;;3.15;;
29214;SDS011;16252;49.816;7.964;2023-04-07T15:01:14;5.50;;;3.78;;
29214;SDS011;16252;49.816;7.964;2023-04-07T15:03:40;5.05;;;3.35;;